createdAt,value
2023-02-11T00:00:17.449Z,102687.53
2023-02-11T00:02:50.337Z,102684.97
2023-02-11T00:05:23.998Z,102685.88
2023-02-11T00:07:57.277Z,102672.00
2023-02-11T00:10:31.282Z,102677.31
2023-02-11T00:13:04.258Z,102688.41
2023-02-11T00:15:37.723Z,102683.97
2023-02-11T00:18:10.285Z,102678.00
2023-02-11T00:20:43.294Z,102685.03
2023-02-11T00:23:16.328Z,102683.53
2023-02-11T00:25:49.883Z,102674.81
2023-02-11T00:28:23.325Z,102687.88
2023-02-11T00:31:02.613Z,102680.94
2023-02-11T00:33:36.875Z,102687.59
2023-02-11T00:36:17.975Z,102692.75
2023-02-11T00:38:53.043Z,102697.88
2023-02-11T00:41:23.523Z,102694.38
2023-02-11T00:43:58.886Z,102691.97
2023-02-11T00:46:29.171Z,102683.53
2023-02-11T00:49:02.298Z,102683.56
2023-02-11T00:51:32.789Z,102677.38
2023-02-11T00:54:04.192Z,102676.50
2023-02-11T00:56:42.876Z,102662.50
2023-02-11T00:59:13.586Z,102652.88
2023-02-11T01:01:43.915Z,102649.34
2023-02-11T01:04:17.278Z,102645.66
2023-02-11T01:06:51.292Z,102650.75
2023-02-11T01:09:25.258Z,102649.13
2023-02-11T01:11:58.615Z,102649.81
2023-02-11T01:14:32.006Z,102653.19
2023-02-11T01:17:02.324Z,102643.81
2023-02-11T01:19:32.126Z,102644.84
2023-02-11T01:21:58.539Z,102634.44
2023-02-11T01:24:34.732Z,102639.47
2023-02-11T01:27:07.843Z,102630.78
2023-02-11T01:29:43.864Z,102629.03
2023-02-11T01:32:14.632Z,102619.50
2023-02-11T01:34:44.887Z,102623.00
2023-02-11T01:37:17.391Z,102621.34
2023-02-11T01:39:47.680Z,102617.94
2023-02-11T01:42:23.387Z,102622.41
2023-02-11T01:45:01.477Z,102620.69
2023-02-11T01:47:31.295Z,102617.25
2023-02-11T01:50:05.214Z,102599.97
2023-02-11T01:52:40.613Z,102605.34
2023-02-11T01:55:36.152Z,102607.06
2023-02-11T01:58:09.357Z,102598.47
2023-02-11T02:00:43.533Z,102602.88
2023-02-11T02:03:20.199Z,102600.22
2023-02-11T02:06:20.790Z,102591.53
2023-02-11T02:09:16.350Z,102596.03
2023-02-11T02:11:49.861Z,102599.53
2023-02-11T02:14:26.499Z,102587.50
2023-02-11T02:16:59.938Z,102583.94
2023-02-11T02:19:57.749Z,102588.28
2023-02-11T02:22:52.569Z,102578.00
2023-02-11T02:25:47.979Z,102580.72
2023-02-11T02:28:42.494Z,102565.97
2023-02-11T02:31:27.226Z,102569.50
2023-02-11T02:34:12.517Z,102568.63
2023-02-11T02:37:12.106Z,102570.31
2023-02-11T02:39:47.022Z,102566.00
2023-02-11T02:42:22.261Z,102560.91
2023-02-11T02:44:57.094Z,102567.00
2023-02-11T02:47:30.304Z,102557.66
2023-02-11T02:50:03.518Z,102559.34
2023-02-11T02:52:54.525Z,102565.47
2023-02-11T02:55:47.167Z,102562.00
2023-02-11T02:58:49.889Z,102570.59
2023-02-11T03:01:42.507Z,102573.31
2023-02-11T03:04:27.238Z,102559.44
2023-02-11T03:07:29.704Z,102562.06
2023-02-11T03:10:06.132Z,102566.38
2023-02-11T03:12:37.916Z,102560.28
2023-02-11T03:15:12.401Z,102564.56
2023-02-11T03:17:45.270Z,102567.97
2023-02-11T03:20:22.787Z,102560.03
2023-02-11T03:23:31.605Z,102565.28
2023-02-11T03:26:10.212Z,102543.66
2023-02-11T03:29:07.972Z,102552.25
2023-02-11T03:32:00.198Z,102539.41
2023-02-11T03:34:51.514Z,102530.84
2023-02-11T03:37:37.493Z,102536.06
2023-02-11T03:40:20.579Z,102523.94
2023-02-11T03:43:12.897Z,102530.03
2023-02-11T03:45:50.126Z,102523.00
2023-02-11T03:48:49.914Z,102525.66
2023-02-11T03:51:26.045Z,102522.31
2023-02-11T03:54:02.169Z,102518.81
2023-02-11T03:56:45.205Z,102512.72
2023-02-11T03:59:18.355Z,102503.13
2023-02-11T04:01:51.585Z,102506.56
2023-02-11T04:04:24.314Z,102497.09
2023-02-11T04:06:58.881Z,102503.22
2023-02-11T04:09:31.379Z,102515.38
2023-02-11T04:12:05.327Z,102516.31
2023-02-11T04:14:38.379Z,102520.69
2023-02-11T04:17:12.609Z,102521.63
2023-02-11T04:19:45.300Z,102535.63
2023-02-11T04:22:20.057Z,102528.59
2023-02-11T04:24:53.445Z,102527.72
2023-02-11T04:27:27.308Z,102533.91
2023-02-11T04:30:01.834Z,102534.88
2023-02-11T04:32:34.613Z,102533.22
2023-02-11T04:35:07.742Z,102533.22
2023-02-11T04:37:38.310Z,102528.03
2023-02-11T04:40:08.735Z,102532.38
2023-02-11T04:42:44.746Z,102529.00
2023-02-11T04:45:15.510Z,102522.16
2023-02-11T04:47:52.085Z,102528.22
2023-02-11T04:50:18.483Z,102526.47
2023-02-11T04:52:47.848Z,102530.84
2023-02-11T04:55:18.120Z,102526.59
2023-02-11T04:57:51.342Z,102528.38
2023-02-11T05:00:24.620Z,102537.03
2023-02-11T05:02:57.350Z,102536.16
2023-02-11T05:05:31.956Z,102539.53
2023-02-11T05:08:04.553Z,102536.94
2023-02-11T05:10:37.504Z,102543.09
2023-02-11T05:13:10.313Z,102544.84
2023-02-11T05:15:44.889Z,102544.84
2023-02-11T05:18:17.317Z,102549.22
2023-02-11T05:20:51.321Z,102546.69
2023-02-11T05:23:24.312Z,102542.34
2023-02-11T05:25:57.785Z,102537.09
2023-02-11T05:28:31.309Z,102537.03
2023-02-11T05:31:05.149Z,102535.25
2023-02-11T05:33:38.357Z,102526.50
2023-02-11T05:36:15.178Z,102526.47
2023-02-11T05:38:48.357Z,102522.94
2023-02-11T05:41:21.621Z,102516.81
2023-02-11T05:43:54.333Z,102511.56
2023-02-11T05:46:23.519Z,102508.09
2023-02-11T05:48:53.370Z,102493.31
2023-02-11T05:51:19.726Z,102495.84
2023-02-11T05:53:55.951Z,102491.59
2023-02-11T05:56:26.724Z,102503.72
2023-02-11T05:58:56.957Z,102508.09
2023-02-11T06:01:29.341Z,102500.31
2023-02-11T06:04:02.524Z,102510.75
2023-02-11T06:06:35.393Z,102502.19
2023-02-11T06:09:08.961Z,102498.84
2023-02-11T06:11:41.313Z,102491.91
2023-02-11T06:14:14.499Z,102497.97
2023-02-11T06:16:47.466Z,102482.25
2023-02-11T06:19:20.970Z,102473.53
2023-02-11T06:21:53.496Z,102470.78
2023-02-11T06:24:47.862Z,102483.81
2023-02-11T06:27:17.320Z,102500.47
2023-02-11T06:29:46.549Z,102507.53
2023-02-11T06:32:36.957Z,102518.06
2023-02-11T06:35:12.918Z,102517.28
2023-02-11T06:37:43.721Z,102521.63
2023-02-11T06:40:19.570Z,102509.53
2023-02-11T06:42:45.923Z,102521.75
2023-02-11T06:45:15.435Z,102524.38
2023-02-11T06:47:45.663Z,102527.84
2023-02-11T06:50:18.713Z,102526.16
2023-02-11T06:52:53.904Z,102524.47
2023-02-11T06:55:26.849Z,102535.75
2023-02-11T06:58:00.370Z,102540.09
2023-02-11T07:00:33.355Z,102540.09
2023-02-11T07:03:07.739Z,102549.66
2023-02-11T07:05:42.972Z,102548.78
2023-02-11T07:08:17.773Z,102558.25
2023-02-11T07:10:50.362Z,102550.44
2023-02-11T07:13:20.528Z,102544.38
2023-02-11T07:15:50.657Z,102548.72
2023-02-11T07:18:26.953Z,102547.91
2023-02-11T07:20:57.742Z,102557.56
2023-02-11T07:23:27.977Z,102550.63
2023-02-11T07:26:08.610Z,102548.88
2023-02-11T07:28:42.599Z,102550.63
2023-02-11T07:31:21.338Z,102545.41
2023-02-11T07:34:02.578Z,102557.59
2023-02-11T07:36:35.328Z,102550.53
2023-02-11T07:39:09.923Z,102544.44
2023-02-11T07:41:42.967Z,102553.13
2023-02-11T07:44:17.331Z,102561.81
2023-02-11T07:46:50.606Z,102568.84
2023-02-11T07:49:23.735Z,102581.91
2023-02-11T07:51:56.412Z,102589.72
2023-02-11T07:54:26.556Z,102591.53
2023-02-11T07:56:56.740Z,102606.34
2023-02-11T07:59:27.561Z,102598.56
2023-02-11T08:02:00.422Z,102611.63
2023-02-11T08:04:33.991Z,102604.66
2023-02-11T08:07:07.354Z,102601.19
2023-02-11T08:09:41.295Z,102595.16
2023-02-11T08:12:14.355Z,102600.38
2023-02-11T08:14:45.003Z,102612.53
2023-02-11T08:17:14.843Z,102609.88
2023-02-11T08:19:41.274Z,102600.38
2023-02-11T08:22:18.297Z,102603.84
2023-02-11T08:24:50.098Z,102618.69
2023-02-11T08:27:30.192Z,102620.41
2023-02-11T08:30:00.303Z,102624.81
2023-02-11T08:32:31.154Z,102627.44
2023-02-11T08:35:04.619Z,102637.00
2023-02-11T08:37:37.601Z,102644.88
2023-02-11T08:40:10.700Z,102648.38
2023-02-11T08:42:45.055Z,102643.16
2023-02-11T08:45:18.427Z,102654.47
2023-02-11T08:47:52.321Z,102660.53
2023-02-11T08:50:27.966Z,102654.44
2023-02-11T08:53:00.626Z,102655.34
2023-02-11T08:55:33.380Z,102660.56
2023-02-11T08:58:07.073Z,102656.19
2023-02-11T09:00:40.414Z,102652.75
2023-02-11T09:03:14.427Z,102663.22
2023-02-11T09:05:53.247Z,102660.56
2023-02-11T09:08:27.235Z,102662.28
2023-02-11T09:11:00.486Z,102653.53
2023-02-11T09:13:34.537Z,102643.16
2023-02-11T09:16:07.641Z,102644.03
2023-02-11T09:18:41.899Z,102632.66
2023-02-11T09:21:15.839Z,102647.50
2023-02-11T09:23:48.344Z,102650.13
2023-02-11T09:26:27.427Z,102665.84
2023-02-11T09:29:02.920Z,102676.28
2023-02-11T09:31:35.533Z,102683.31
2023-02-11T09:34:10.276Z,102684.22
2023-02-11T09:36:43.371Z,102686.00
2023-02-11T09:39:23.942Z,102680.81
2023-02-11T09:42:19.700Z,102672.16
2023-02-11T09:44:54.847Z,102666.94
2023-02-11T09:47:39.581Z,102669.56
2023-02-11T09:50:20.350Z,102673.97
2023-02-11T09:53:00.425Z,102686.16
2023-02-11T09:55:45.878Z,102671.34
2023-02-11T09:58:31.764Z,102673.13
2023-02-11T10:01:12.201Z,102673.09
2023-02-11T10:04:12.926Z,102675.69
2023-02-11T10:06:56.693Z,102684.41
2023-02-11T10:09:44.214Z,102691.38
2023-02-11T10:12:33.946Z,102700.16
2023-02-11T10:15:25.648Z,102708.88
2023-02-11T10:18:16.661Z,102698.47
2023-02-11T10:21:07.130Z,102700.16
2023-02-11T10:23:46.651Z,102688.84
2023-02-11T10:26:19.917Z,102700.22
2023-02-11T10:28:57.631Z,102699.38
2023-02-11T10:31:41.688Z,102718.53
2023-02-11T10:34:17.649Z,102710.72
2023-02-11T10:36:50.513Z,102715.09
2023-02-11T10:39:30.416Z,102717.69
2023-02-11T10:42:08.768Z,102704.59
2023-02-11T10:44:46.059Z,102695.06
2023-02-11T10:47:23.777Z,102699.44
2023-02-11T10:49:57.963Z,102682.88
2023-02-11T10:52:30.631Z,102688.16
2023-02-11T10:55:05.293Z,102694.25
2023-02-11T10:57:44.546Z,102697.75
2023-02-11T11:00:20.769Z,102691.66
2023-02-11T11:02:59.433Z,102677.72
2023-02-11T11:05:39.924Z,102676.03
2023-02-11T11:08:13.184Z,102669.06
2023-02-11T11:10:51.219Z,102667.22
2023-02-11T11:13:30.779Z,102682.00
2023-02-11T11:16:16.424Z,102682.00
2023-02-11T11:18:52.520Z,102693.34
2023-02-11T11:21:48.209Z,102701.22
2023-02-11T11:24:34.400Z,102711.63
2023-02-11T11:27:09.126Z,102709.88
2023-02-11T11:29:55.217Z,102700.28
2023-02-11T11:32:36.377Z,102707.25
2023-02-11T11:35:29.469Z,102699.44
2023-02-11T11:38:07.276Z,102694.19
2023-02-11T11:40:40.720Z,102696.81
2023-02-11T11:43:17.349Z,102710.78
2023-02-11T11:45:58.816Z,102717.81
2023-02-11T11:48:42.862Z,102724.75
2023-02-11T11:51:16.005Z,102737.00
2023-02-11T11:54:00.177Z,102731.75
2023-02-11T11:56:39.200Z,102730.91
2023-02-11T11:59:19.261Z,102732.69
2023-02-11T12:02:03.377Z,102729.16
2023-02-11T12:05:04.719Z,102729.97
2023-02-11T12:08:05.719Z,102737.84
2023-02-11T12:10:58.347Z,102729.97
2023-02-11T12:13:53.876Z,102737.84
2023-02-11T12:16:40.257Z,102744.84
2023-02-11T12:19:34.378Z,102757.13
2023-02-11T12:22:32.835Z,102740.56
2023-02-11T12:25:43.389Z,102738.81
2023-02-11T12:28:58.109Z,102739.66
2023-02-11T12:31:40.611Z,102741.34
2023-02-11T12:34:32.685Z,102746.63
2023-02-11T12:37:18.549Z,102743.09
2023-02-11T12:39:58.124Z,102740.53
2023-02-11T12:43:05.386Z,102737.97
2023-02-11T12:45:54.513Z,102746.66
2023-02-11T12:48:35.644Z,102744.09
2023-02-11T12:51:41.822Z,102740.63
2023-02-11T12:54:20.806Z,102742.38
2023-02-11T12:57:00.052Z,102731.91
2023-02-11T12:59:33.354Z,102728.44
2023-02-11T13:02:20.165Z,102730.19
2023-02-11T13:04:57.263Z,102729.34
2023-02-11T13:07:37.438Z,102738.88
2023-02-11T13:10:13.416Z,102735.41
2023-02-11T13:13:04.798Z,102739.75
2023-02-11T13:15:31.678Z,102733.59
2023-02-11T13:18:13.405Z,102729.25
2023-02-11T13:20:50.134Z,102731.03
2023-02-11T13:23:42.651Z,102729.28
2023-02-11T13:26:24.487Z,102730.16
2023-02-11T13:29:34.601Z,102728.44
2023-02-11T13:32:14.439Z,102736.28
2023-02-11T13:34:43.601Z,102735.47
2023-02-11T13:37:23.027Z,102739.81
2023-02-11T13:40:02.189Z,102742.44
2023-02-11T13:42:31.076Z,102745.03
2023-02-11T14:07:44.182Z,102761.53
2023-02-11T14:10:38.554Z,102762.41
2023-02-11T14:13:17.695Z,102759.78
2023-02-11T14:15:46.178Z,102768.53
2023-02-11T14:18:37.420Z,102779.00
2023-02-11T14:21:13.278Z,102777.28
2023-02-11T14:23:40.755Z,102780.75
2023-02-11T14:26:20.088Z,102784.25
2023-02-11T14:29:01.786Z,102794.69
2023-02-11T14:31:55.600Z,102808.63
2023-02-11T14:34:40.888Z,102800.84
2023-02-11T14:37:23.438Z,102812.16
2023-02-11T14:40:18.513Z,102819.13
2023-02-11T14:42:45.232Z,102813.03
2023-02-11T14:45:25.560Z,102822.63
2023-02-11T14:48:08.069Z,102821.75
2023-02-11T14:50:43.276Z,102820.88
2023-02-11T14:53:18.907Z,102834.81
2023-02-11T14:55:54.758Z,102837.44
2023-02-11T14:58:26.893Z,102852.19
2023-02-11T15:00:59.262Z,102866.09
2023-02-11T15:03:41.190Z,102868.69
2023-02-11T15:06:07.513Z,102865.19
2023-02-11T15:08:41.978Z,102862.56
2023-02-11T15:11:12.033Z,102872.13
2023-02-11T15:13:38.920Z,102879.97
2023-02-11T15:16:09.173Z,102875.63
2023-02-11T15:18:40.932Z,102867.81
2023-02-11T15:21:08.214Z,102875.63
2023-02-11T15:23:34.887Z,102868.66
2023-02-11T15:26:05.508Z,102868.59
2023-02-11T15:28:34.377Z,102869.47
2023-02-11T15:31:15.030Z,102874.59
2023-02-11T15:33:41.453Z,102877.19
2023-02-11T15:36:14.222Z,102876.28
2023-02-11T15:38:40.937Z,102878.91
2023-02-11T15:41:08.383Z,102877.09
2023-02-11T15:43:50.951Z,102871.88
2023-02-11T15:46:21.173Z,102875.38
2023-02-11T15:48:50.484Z,102877.16
2023-02-11T15:51:32.796Z,102877.06
2023-02-11T15:54:02.016Z,102890.06
2023-02-11T15:56:34.629Z,102896.16
2023-02-11T15:59:25.674Z,102902.31
2023-02-11T16:01:53.269Z,102905.81
2023-02-11T16:04:27.635Z,102914.53
2023-02-11T16:06:55.616Z,102911.94
2023-02-11T16:09:30.490Z,102909.38
2023-02-11T16:11:59.189Z,102920.69
2023-02-11T16:14:31.278Z,102916.28
2023-02-11T16:17:09.356Z,102917.13
2023-02-11T16:19:42.812Z,102927.56
2023-02-11T16:22:14.679Z,102928.38
2023-02-11T16:24:41.257Z,102925.78
2023-02-11T16:27:20.624Z,102932.72
2023-02-11T16:29:48.784Z,102934.47
2023-02-11T16:32:19.432Z,102953.69
2023-02-11T16:34:46.080Z,102949.34
2023-02-11T16:37:12.456Z,102945.81
2023-02-11T16:39:38.840Z,102958.00
2023-02-11T16:42:07.706Z,102965.88
2023-02-11T16:44:34.856Z,102961.47
2023-02-11T16:47:05.846Z,102966.69
2023-02-11T16:49:42.090Z,102971.97
2023-02-11T16:52:13.507Z,102985.88
2023-02-11T16:54:39.889Z,102984.97
2023-02-11T16:57:14.198Z,102988.50
2023-02-11T16:59:40.560Z,102981.53
2023-02-11T17:02:15.603Z,102989.38
2023-02-11T17:04:42.823Z,102976.31
2023-02-11T17:07:09.216Z,102991.13
2023-02-11T17:09:35.585Z,102992.84
2023-02-11T17:12:01.993Z,102994.59
2023-02-11T17:14:28.349Z,102995.41
2023-02-11T17:16:54.719Z,103004.16
2023-02-11T17:19:21.678Z,102997.22
2023-02-11T17:21:50.902Z,103005.88
2023-02-11T17:24:18.004Z,103005.84
2023-02-11T17:26:45.462Z,103016.28
2023-02-11T17:29:15.236Z,103019.75
2023-02-11T17:31:41.966Z,103034.56
2023-02-11T17:34:08.670Z,103031.13
2023-02-11T17:36:35.356Z,103031.16
2023-02-11T17:39:02.851Z,103036.38
2023-02-11T17:41:29.280Z,103030.25
2023-02-11T17:43:59.869Z,103025.03
2023-02-11T17:46:28.493Z,103031.97
2023-02-11T17:48:55.998Z,103031.13
2023-02-11T17:51:36.906Z,103026.75
2023-02-11T17:54:21.622Z,103033.72
2023-02-11T17:56:50.639Z,103045.03
2023-02-11T17:59:17.205Z,103033.72
2023-02-11T18:01:43.901Z,103036.28
2023-02-11T18:04:13.447Z,103049.28
2023-02-11T18:06:39.921Z,103056.19
2023-02-11T18:09:07.195Z,103046.56
2023-02-11T18:11:35.889Z,103058.75
2023-02-11T18:14:04.428Z,103057.09
2023-02-11T18:16:30.868Z,103048.41
2023-02-11T18:18:58.459Z,103066.75
2023-02-11T18:21:24.835Z,103071.97
2023-02-11T18:23:51.812Z,103082.44
2023-02-11T18:26:20.384Z,103079.81
2023-02-11T18:28:47.412Z,103083.31
2023-02-11T18:31:14.391Z,103088.56
2023-02-11T18:33:41.859Z,103093.81
2023-02-11T18:36:17.304Z,103092.09
2023-02-11T18:38:46.487Z,103093.88
2023-02-11T18:41:13.869Z,103098.25
2023-02-11T18:43:40.533Z,103097.38
2023-02-11T18:46:10.113Z,103109.59
2023-02-11T18:48:37.487Z,103113.91
2023-02-11T18:51:09.762Z,103108.69
2023-02-11T18:53:36.501Z,103103.50
2023-02-11T18:56:13.892Z,103104.41
2023-02-11T18:58:40.638Z,103101.78
2023-02-11T19:01:27.315Z,103114.81
2023-02-11T19:03:55.929Z,103127.91
2023-02-11T19:06:25.484Z,103130.53
2023-02-11T19:08:53.713Z,103134.00
2023-02-11T19:11:20.257Z,103122.69
2023-02-11T19:13:51.245Z,103127.91
2023-02-11T19:16:19.608Z,103122.69
2023-02-11T19:18:45.993Z,103128.81
2023-02-11T19:21:12.817Z,103133.16
2023-02-11T19:23:39.420Z,103124.44
2023-02-11T19:26:06.325Z,103116.56
2023-02-11T19:28:33.481Z,103120.00
2023-02-11T19:31:06.567Z,103117.38
2023-02-11T19:33:32.986Z,103119.09
2023-02-11T19:36:07.964Z,103124.25
2023-02-11T19:38:35.246Z,103126.88
2023-02-11T19:41:01.650Z,103119.09
2023-02-11T19:43:28.057Z,103119.09
2023-02-11T19:45:57.508Z,103113.88
2023-02-11T19:48:24.435Z,103118.19
2023-02-11T19:50:50.902Z,103111.25
2023-02-11T19:53:17.270Z,103105.16
2023-02-11T19:55:43.909Z,103107.78
2023-02-11T19:58:10.283Z,103109.47
2023-02-11T20:00:36.679Z,103114.69
2023-02-11T20:03:03.144Z,103132.09
2023-02-11T20:05:30.533Z,103142.59
2023-02-11T20:07:57.502Z,103140.91
2023-02-11T20:10:25.083Z,103138.28
2023-02-11T20:12:51.486Z,103140.97
2023-02-11T20:15:18.253Z,103152.31
2023-02-11T20:17:44.648Z,103152.34
2023-02-11T20:20:12.739Z,103161.94
2023-02-11T20:22:39.090Z,103156.72
2023-02-11T20:25:05.863Z,103159.31
2023-02-11T20:27:33.262Z,103165.44
2023-02-11T20:29:59.804Z,103165.50
2023-02-11T20:32:26.163Z,103171.59
2023-02-11T20:34:52.566Z,103174.22
2023-02-11T20:37:18.934Z,103175.09
2023-02-11T20:39:45.349Z,103174.22
2023-02-11T20:42:12.056Z,103182.94
2023-02-11T20:44:38.836Z,103174.28
2023-02-11T20:47:05.228Z,103182.13
2023-02-11T20:49:31.666Z,103186.47
2023-02-11T20:51:58.494Z,103184.72
2023-02-11T20:54:25.549Z,103183.84
2023-02-11T20:56:53.826Z,103171.59
2023-02-11T20:59:21.116Z,103186.47
2023-02-11T21:01:49.886Z,103180.38
2023-02-11T21:04:19.362Z,103179.50
2023-02-11T21:06:48.848Z,103178.66
2023-02-11T21:09:19.760Z,103180.38
2023-02-11T21:11:47.182Z,103175.94
2023-02-11T21:14:14.429Z,103175.00
2023-02-11T21:16:41.344Z,103182.03
2023-02-11T21:19:07.756Z,103184.56
2023-02-11T21:21:38.218Z,103195.03
2023-02-11T21:24:05.727Z,103205.47
2023-02-11T21:26:32.790Z,103214.22
2023-02-11T21:28:59.429Z,103210.78
2023-02-11T21:31:28.336Z,103220.34
2023-02-11T21:33:55.383Z,103225.59
2023-02-11T21:36:22.826Z,103226.44
2023-02-11T21:38:49.959Z,103230.75
2023-02-11T21:41:17.143Z,103234.22
2023-02-11T21:43:43.741Z,103239.44
2023-02-11T21:46:14.044Z,103237.69
2023-02-11T21:48:40.443Z,103241.13
2023-02-11T21:51:11.649Z,103242.84
2023-02-11T21:53:38.053Z,103237.56
2023-02-11T21:56:10.200Z,103248.00
2023-02-11T21:58:37.767Z,103245.41
2023-02-11T22:01:25.470Z,103253.22
2023-02-11T22:03:52.177Z,103253.22
2023-02-11T22:06:27.665Z,103261.03
2023-02-11T22:08:54.986Z,103262.81
2023-02-11T22:11:21.377Z,103261.00
2023-02-11T22:13:47.930Z,103262.75
2023-02-11T22:16:16.474Z,103258.31
2023-02-11T22:18:45.665Z,103265.34
2023-02-11T22:21:15.688Z,103268.00
2023-02-11T22:23:42.967Z,103277.50
2023-02-11T22:26:18.197Z,103284.44
2023-02-11T22:28:44.926Z,103288.81
2023-02-11T22:31:13.763Z,103284.53
2023-02-11T22:33:40.773Z,103276.69
2023-02-11T22:36:12.404Z,103278.31
2023-02-11T22:38:38.845Z,103291.41
2023-02-11T22:41:08.653Z,103282.72
2023-02-11T22:43:35.641Z,103290.56
2023-02-11T22:46:07.704Z,103296.72
2023-02-11T22:48:35.587Z,103303.69
2023-02-11T22:51:17.185Z,103303.69
2023-02-11T22:53:44.329Z,103313.25
2023-02-11T22:56:15.334Z,103315.88
2023-02-11T22:58:42.784Z,103315.78
2023-02-11T23:01:09.162Z,103321.75
2023-02-11T23:03:36.123Z,103319.13
2023-02-11T23:06:03.033Z,103319.13
2023-02-11T23:08:30.386Z,103306.13
2023-02-11T23:11:03.167Z,103319.81
2023-02-11T23:13:29.553Z,103312.84
2023-02-11T23:15:56.303Z,103315.56
2023-02-11T23:18:22.876Z,103326.88
2023-02-11T23:20:49.228Z,103333.75
2023-02-11T23:23:15.581Z,103340.72
2023-02-11T23:25:43.994Z,103339.88
2023-02-11T23:28:11.505Z,103347.69
2023-02-11T23:30:38.442Z,103358.16
2023-02-11T23:33:04.828Z,103353.81
2023-02-11T23:35:31.310Z,103350.31
2023-02-11T23:37:57.710Z,103348.66
2023-02-11T23:40:24.116Z,103357.38
2023-02-11T23:42:50.493Z,103355.66
2023-02-11T23:45:17.165Z,103361.78
2023-02-11T23:47:43.595Z,103356.53
2023-02-11T23:50:10.695Z,103358.28
2023-02-11T23:52:37.402Z,103365.22
2023-02-11T23:55:04.527Z,103365.28
2023-02-11T23:57:34.883Z,103366.13
